Time;durP1;ratioP1;P1;durP2;ratioP2;P2;SDS_P1;SDS_P2;PMS_P1;PMS_P2;Temp;Humidity;BMP_temperature;BMP_pressure;BME280_temperature;BME280_humidity;BME280_pressure;Samples;Min_cycle;Max_cycle;Signal;HPM_P1;HPM_P2
2022/06/24 00:03:03;;;;;;;16.88;12.23;;;17.30;1.00;;;;;;10304871;28;20213;-93
2022/06/24 00:08:25;;;;;;;21.92;14.40;;;17.20;1.00;;;;;;10320987;28;20222;-93
2022/06/24 00:13:47;;;;;;;18.75;12.75;;;17.10;1.00;;;;;;10321604;28;20194;-93
2022/06/24 00:19:11;;;;;;;16.17;12.00;;;17.10;1.00;;;;;;10306521;28;20241;-93
2022/06/24 00:24:35;;;;;;;16.02;11.02;;;17.10;1.00;;;;;;10320736;28;20225;-90
2022/06/24 00:29:56;;;;;;;12.10;9.35;;;17.10;1.00;;;;;;10307554;28;20237;-93
2022/06/24 00:35:18;;;;;;;13.82;9.70;;;17.10;1.00;;;;;;10320389;28;20194;-92
2022/06/24 00:40:40;;;;;;;13.73;9.05;;;17.00;1.00;;;;;;10320425;28;20193;-93
2022/06/24 00:46:26;;;;;;;14.40;8.85;;;17.00;1.00;;;;;;10311878;28;20309;-92
2022/06/24 00:51:47;;;;;;;11.55;9.20;;;16.90;1.00;;;;;;10303002;28;20294;-92
2022/06/24 00:57:09;;;;;;;12.43;8.85;;;16.90;6.30;;;;;;10302765;28;20201;-92
2022/06/24 01:02:32;;;;;;;11.63;8.32;;;16.90;13.60;;;;;;10303119;28;20277;-93
2022/06/24 01:07:54;;;;;;;10.15;8.55;;;16.90;19.50;;;;;;10320550;28;20214;-78
2022/06/24 01:13:15;;;;;;;11.13;9.25;;;16.80;20.30;;;;;;10348645;28;20209;-83
2022/06/24 01:18:37;;;;;;;12.05;8.32;;;16.80;26.20;;;;;;10318877;28;20548;-93
2022/06/24 01:24:12;;;;;;;10.23;7.93;;;16.80;30.20;;;;;;10301442;28;20201;-93
2022/06/24 01:29:33;;;;;;;11.15;7.35;;;16.80;44.70;;;;;;10273808;28;20490;-91
2022/06/24 01:34:56;;;;;;;12.45;8.30;;;16.80;46.00;;;;;;10287218;28;20202;-94
2022/06/24 01:40:21;;;;;;;12.68;7.65;;;16.80;41.40;;;;;;10309434;28;20253;-93
2022/06/24 01:45:42;;;;;;;8.65;6.68;;;16.70;50.80;;;;;;10292340;28;20249;-92
2022/06/24 01:51:06;;;;;;;8.52;7.00;;;16.70;54.60;;;;;;10317244;28;20427;-93
2022/06/24 01:56:27;;;;;;;10.48;6.80;;;16.70;55.00;;;;;;10286835;28;20255;-91
2022/06/24 02:01:49;;;;;;;9.25;6.85;;;16.70;65.00;;;;;;10320042;28;20241;-93
2022/06/24 02:07:10;;;;;;;10.07;6.63;;;16.70;59.70;;;;;;10299408;28;20241;-92
2022/06/24 02:18:12;;;;;;;11.20;6.45;;;16.70;66.80;;;;;;10316206;28;20206;-93
2022/06/24 02:23:34;;;;;;;8.57;6.72;;;16.70;77.10;;;;;;10316576;28;20197;-93
2022/06/24 02:28:56;;;;;;;8.93;6.45;;;16.70;91.90;;;;;;10301293;28;20250;-92
2022/06/24 02:34:17;;;;;;;10.60;6.85;;;16.60;84.40;;;;;;10299070;28;20248;-91
2022/06/24 02:39:39;;;;;;;10.50;6.22;;;16.60;84.40;;;;;;10301749;28;20205;-92
2022/06/24 02:45:00;;;;;;;10.85;6.22;;;16.60;93.80;;;;;;10313054;28;20245;-89
2022/06/24 02:50:21;;;;;;;7.50;5.90;;;16.70;84.60;;;;;;10281642;29;20214;-90
2022/06/24 02:55:44;;;;;;;7.00;5.85;;;16.70;89.20;;;;;;10267862;28;20197;-92
2022/06/24 03:01:06;;;;;;;11.43;5.97;;;16.60;90.70;;;;;;10288088;28;20212;-83
2022/06/24 03:06:28;;;;;;;8.13;6.53;;;16.70;91.50;;;;;;10300336;28;20272;-85
2022/06/24 03:11:49;;;;;;;9.18;6.10;;;16.70;89.40;;;;;;10300574;28;20241;-84
2022/06/24 03:17:10;;;;;;;9.38;6.53;;;16.70;83.80;;;;;;10315003;28;20431;-85
2022/06/24 03:22:32;;;;;;;9.40;7.00;;;16.80;72.60;;;;;;10297827;28;20202;-89
2022/06/24 03:27:53;;;;;;;8.75;6.35;;;16.90;76.70;;;;;;10296936;28;20222;-87
2022/06/24 03:33:15;;;;;;;15.90;7.20;;;16.90;80.00;;;;;;10283481;28;20272;-86
2022/06/24 03:38:36;;;;;;;8.07;6.20;;;16.90;74.10;;;;;;10299939;28;20492;-85
2022/06/24 03:44:00;;;;;;;7.00;6.30;;;16.90;69.00;;;;;;10301055;28;20228;-82
2022/06/24 03:49:22;;;;;;;8.18;5.70;;;17.00;72.30;;;;;;10308298;28;20278;-85
2022/06/24 03:54:44;;;;;;;6.90;5.80;;;17.10;70.10;;;;;;10299704;28;20201;-89
2022/06/24 04:00:09;;;;;;;10.00;6.38;;;17.20;61.00;;;;;;10283236;28;20205;-80
2022/06/24 04:05:33;;;;;;;9.68;6.63;;;17.20;67.40;;;;;;10320883;28;20226;-81
2022/06/24 04:10:54;;;;;;;8.38;6.50;;;17.30;66.60;;;;;;10320937;28;20355;-87
2022/06/24 04:16:16;;;;;;;11.38;6.88;;;17.40;74.70;;;;;;10329541;28;20217;-83
2022/06/24 04:21:37;;;;;;;9.82;6.93;;;17.40;80.20;;;;;;10320740;28;20214;-87
2022/06/24 04:26:59;;;;;;;10.60;7.15;;;17.40;74.50;;;;;;10292239;28;20445;-90
2022/06/24 04:32:21;;;;;;;10.45;6.88;;;17.50;63.40;;;;;;10319589;28;20230;-79
2022/06/24 04:37:43;;;;;;;12.40;8.68;;;17.60;58.90;;;;;;10305531;28;20194;-81
2022/06/24 04:43:05;;;;;;;11.63;7.05;;;17.70;47.50;;;;;;10305277;28;20237;-79
2022/06/24 04:48:26;;;;;;;9.57;7.38;;;17.80;34.60;;;;;;10334968;28;20226;-83
2022/06/24 04:53:48;;;;;;;21.83;8.05;;;18.00;26.30;;;;;;10275467;28;20222;-88
2022/06/24 04:59:09;;;;;;;11.70;7.35;;;18.10;21.10;;;;;;10291074;28;20190;-78
2022/06/24 05:04:31;;;;;;;8.90;6.40;;;18.30;8.30;;;;;;10274525;28;20269;-77
2022/06/24 05:09:53;;;;;;;7.28;5.57;;;18.50;1.00;;;;;;10266418;29;20490;-92
2022/06/24 05:15:14;;;;;;;6.40;5.57;;;18.60;1.00;;;;;;10298797;28;20391;-89
2022/06/24 05:20:36;;;;;;;8.90;5.88;;;18.80;1.00;;;;;;10318422;28;20250;-83
2022/06/24 05:25:57;;;;;;;8.95;6.28;;;19.00;1.00;;;;;;10287947;28;20473;-87
2022/06/24 05:31:19;;;;;;;11.10;7.18;;;19.10;1.00;;;;;;10320094;28;20222;-86
2022/06/24 05:36:41;;;;;;;12.13;6.55;;;19.30;1.00;;;;;;10333689;28;20217;-84
2022/06/24 05:42:03;;;;;;;8.45;5.38;;;19.40;1.00;;;;;;10333836;28;20286;-87
2022/06/24 05:47:24;;;;;;;9.13;7.25;;;19.60;1.00;;;;;;10332476;28;20543;-84
2022/06/24 05:58:26;;;;;;;11.45;6.25;;;19.90;1.00;;;;;;10302686;28;20198;-87
2022/06/24 06:03:48;;;;;;;7.53;5.50;;;20.10;1.00;;;;;;10300695;28;20237;-90
2022/06/24 06:09:10;;;;;;;11.02;5.95;;;20.60;1.00;;;;;;10264499;28;20226;-88
2022/06/24 06:14:32;;;;;;;15.68;5.85;;;20.60;1.00;;;;;;10296673;28;20199;-90
2022/06/24 06:19:54;;;;;;;6.88;5.00;;;20.80;1.00;;;;;;10276603;29;20270;-88
2022/06/24 06:25:17;;;;;;;5.88;4.50;;;21.00;1.00;;;;;;10280604;28;20288;-77
2022/06/24 06:30:39;;;;;;;5.47;4.18;;;21.30;1.00;;;;;;10291512;29;20246;-83
2022/06/24 06:36:05;;;;;;;6.53;4.20;;;22.00;1.00;;;;;;10271979;29;20199;-78
2022/06/24 06:41:27;;;;;;;5.88;3.92;;;22.10;1.00;;;;;;10293635;28;20202;-79
2022/06/24 06:46:50;;;;;;;5.03;3.63;;;22.60;1.00;;;;;;10353912;28;20218;-85
2022/06/24 06:52:11;;;;;;;5.38;3.45;;;23.20;1.00;;;;;;10338324;28;20229;-82
2022/06/24 06:57:32;;;;;;;7.85;3.70;;;23.90;1.00;;;;;;10354701;28;20201;-80
2022/06/24 07:02:54;;;;;;;4.10;3.03;;;24.50;1.00;;;;;;10315718;28;20224;-78
2022/06/24 07:08:15;;;;;;;4.88;3.20;;;25.10;1.00;;;;;;10297188;28;20552;-80
2022/06/24 07:13:37;;;;;;;7.53;3.20;;;25.60;1.00;;;;;;10306561;28;20209;-82
2022/06/24 07:18:59;;;;;;;7.93;3.13;;;25.90;99.90;;;;;;10279893;28;20245;-79
2022/06/24 07:24:23;;;;;;;4.18;3.10;;;26.20;12.50;;;;;;10323432;28;20214;-77
2022/06/24 07:29:44;;;;;;;6.95;2.67;;;26.60;1.00;;;;;;10302684;28;20870;-79
2022/06/24 07:35:07;;;;;;;4.20;2.70;;;27.00;1.00;;;;;;10290910;28;20494;-81
2022/06/24 07:40:33;;;;;;;5.07;2.25;;;27.40;1.00;;;;;;10297953;28;20207;-80
2022/06/24 07:45:55;;;;;;;4.60;2.17;;;27.50;1.00;;;;;;10335461;28;20225;-79
2022/06/24 07:51:17;;;;;;;4.82;2.67;;;27.80;99.90;;;;;;10339234;28;20210;-80
2022/06/24 07:56:57;;;;;;;7.30;2.45;;;28.10;99.90;;;;;;10323881;28;20217;-81
2022/06/24 08:02:19;;;;;;;4.80;2.80;;;28.30;99.90;;;;;;10297395;28;20207;-79
2022/06/24 08:07:40;;;;;;;3.58;2.10;;;28.60;99.90;;;;;;10315778;28;20276;-79
2022/06/24 08:13:02;;;;;;;2.60;1.73;;;28.90;99.90;;;;;;10314054;28;20265;-79
2022/06/24 08:18:24;;;;;;;5.68;1.95;;;29.00;99.90;;;;;;10313018;28;20203;-79
2022/06/24 08:23:45;;;;;;;6.95;2.17;;;29.00;90.60;;;;;;10313722;28;20485;-80
2022/06/24 08:29:07;;;;;;;2.72;2.00;;;29.10;67.80;;;;;;10285200;28;20397;-85
2022/06/24 08:34:31;;;;;;;5.60;2.22;;;29.00;53.70;;;;;;10261834;28;20250;-79
2022/06/24 08:39:52;;;;;;;26.00;3.97;;;29.40;35.70;;;;;;10303148;28;20225;-78
2022/06/24 08:45:15;;;;;;;3.92;2.30;;;30.10;24.60;;;;;;10328482;28;20511;-78
2022/06/24 08:50:36;;;;;;;2.20;2.00;;;30.10;7.50;;;;;;10341867;28;20246;-79
2022/06/24 08:55:58;;;;;;;4.55;2.38;;;30.10;1.00;;;;;;10313102;28;20619;-79
2022/06/24 09:01:19;;;;;;;4.65;2.35;;;30.10;1.00;;;;;;10312885;28;20269;-79
2022/06/24 09:06:41;;;;;;;2.40;2.10;;;30.30;1.00;;;;;;10281478;28;20245;-79
2022/06/24 09:12:03;;;;;;;4.72;2.38;;;30.40;1.00;;;;;;10314453;28;20222;-81
2022/06/24 09:17:29;;;;;;;6.10;2.92;;;30.60;1.00;;;;;;10312111;28;20221;-81
2022/06/24 09:23:08;;;;;;;4.80;2.58;;;30.70;1.00;;;;;;10283215;28;20213;-78
2022/06/24 09:28:31;;;;;;;3.25;2.55;;;30.90;1.00;;;;;;10288066;28;20234;-78
2022/06/24 09:33:53;;;;;;;2.80;2.10;;;31.20;1.00;;;;;;10289414;28;20242;-78
2022/06/24 09:39:16;;;;;;;4.60;2.50;;;31.50;1.00;;;;;;10307682;28;20212;-78
2022/06/24 09:44:46;;;;;;;5.65;3.15;;;31.50;1.00;;;;;;10327737;28;20199;-79
2022/06/24 09:50:08;;;;;;;5.50;2.30;;;31.60;1.00;;;;;;10329119;28;20225;-78
2022/06/24 09:55:30;;;;;;;4.90;3.40;;;31.70;1.00;;;;;;10325545;28;20194;-79
2022/06/24 10:00:52;;;;;;;5.18;2.67;;;31.90;1.00;;;;;;10283152;28;20210;-79
2022/06/24 10:06:14;;;;;;;3.85;2.40;;;31.70;1.00;;;;;;10335327;28;20237;-83
2022/06/24 10:11:44;;;;;;;9.13;3.35;;;31.80;1.00;;;;;;10305698;28;20265;-83
2022/06/24 10:17:08;;;;;;;7.03;2.72;;;31.90;1.00;;;;;;10287912;28;20246;-78
2022/06/24 10:22:37;;;;;;;3.75;2.53;;;31.60;1.00;;;;;;10308453;28;20209;-78
2022/06/24 10:28:03;;;;;;;5.13;2.40;;;31.70;1.00;;;;;;10288274;28;20533;-79
2022/06/24 10:33:30;;;;;;;4.20;2.90;;;32.10;1.00;;;;;;10314863;28;20242;-83
2022/06/24 10:38:51;;;;;;;4.90;2.50;;;32.10;1.00;;;;;;10302326;28;20578;-84
2022/06/24 10:44:27;;;;;;;7.30;2.30;;;31.80;1.00;;;;;;10274074;28;20198;-79
2022/06/24 10:49:52;;;;;;;5.63;2.55;;;31.70;1.00;;;;;;10299008;28;20246;-80
2022/06/24 10:55:29;;;;;;;3.65;2.92;;;31.70;1.00;;;;;;10309858;28;20524;-82
2022/06/24 11:00:51;;;;;;;3.50;2.53;;;31.50;1.00;;;;;;10308572;28;20439;-81
2022/06/24 11:06:13;;;;;;;6.43;2.33;;;31.20;1.00;;;;;;10278787;28;20207;-79
2022/06/24 11:11:35;;;;;;;2.75;2.15;;;31.30;1.00;;;;;;10310230;28;20392;-81
2022/06/24 11:16:56;;;;;;;3.38;2.30;;;31.70;1.00;;;;;;10317697;28;20225;-79
2022/06/24 11:27:38;;;;;;;5.97;2.50;;;31.60;1.00;;;;;;10283470;28;20201;-80
2022/06/24 11:33:03;;;;;;;5.55;2.58;;;31.60;1.00;;;;;;10329694;28;20225;-79
2022/06/24 11:38:24;;;;;;;4.43;1.88;;;31.40;1.00;;;;;;10324661;28;20441;-80
2022/06/24 11:43:49;;;;;;;4.75;2.20;;;30.80;1.00;;;;;;10333174;28;20190;-80
2022/06/24 11:49:12;;;;;;;3.65;2.38;;;31.20;1.00;;;;;;10314216;28;20260;-80
2022/06/24 11:54:34;;;;;;;5.28;1.98;;;31.20;1.00;;;;;;10318076;28;20190;-84
2022/06/24 11:59:59;;;;;;;4.57;2.22;;;31.00;1.00;;;;;;10313430;28;20225;-81
2022/06/24 12:05:34;;;;;;;10.57;1.90;;;31.00;1.00;;;;;;10307223;28;20207;-83
2022/06/24 12:10:56;;;;;;;3.75;2.00;;;31.30;1.00;;;;;;10316486;28;20226;-80
2022/06/24 12:16:17;;;;;;;7.38;2.42;;;31.10;1.00;;;;;;10303094;28;20237;-81
2022/06/24 12:21:42;;;;;;;2.30;1.70;;;30.60;1.00;;;;;;10313685;28;20460;-80
2022/06/24 12:27:04;;;;;;;6.30;3.22;;;31.00;1.00;;;;;;10339120;28;20198;-81
2022/06/24 12:32:26;;;;;;;4.25;1.83;;;31.20;1.00;;;;;;10300452;28;20236;-79
2022/06/24 12:37:56;;;;;;;5.22;2.15;;;31.00;1.00;;;;;;10306722;28;20260;-81
2022/06/24 12:43:18;;;;;;;3.05;1.52;;;31.10;1.00;;;;;;10304978;28;20195;-79
2022/06/24 12:54:19;;;;;;;1.90;1.77;;;31.30;1.00;;;;;;10317302;28;20403;-80
2022/06/24 12:59:50;;;;;;;2.65;1.50;;;31.10;1.00;;;;;;10325834;28;20222;-81
2022/06/24 13:05:11;;;;;;;6.43;1.60;;;31.30;1.00;;;;;;10308213;28;20202;-80
2022/06/24 13:10:35;;;;;;;2.90;1.77;;;30.60;1.00;;;;;;10329732;28;20436;-83
2022/06/24 13:15:59;;;;;;;2.85;1.65;;;30.50;1.00;;;;;;10322247;28;20237;-81
2022/06/24 13:21:20;;;;;;;3.83;1.90;;;30.40;1.00;;;;;;10318169;28;20237;-81
2022/06/24 13:26:41;;;;;;;2.58;1.65;;;30.50;1.00;;;;;;10313287;28;20253;-79
2022/06/24 13:32:03;;;;;;;3.50;1.85;;;30.20;1.00;;;;;;10332331;28;20423;-81
2022/06/24 13:37:25;;;;;;;6.15;1.75;;;30.40;1.00;;;;;;10314607;28;20237;-79
2022/06/24 13:42:47;;;;;;;5.32;1.88;;;30.00;1.00;;;;;;10297248;28;20190;-83
2022/06/24 13:48:08;;;;;;;4.25;1.95;;;29.90;1.00;;;;;;10320759;28;20217;-79
2022/06/24 13:53:30;;;;;;;8.73;2.20;;;29.80;1.00;;;;;;10349090;28;20187;-80
2022/06/24 13:58:52;;;;;;;5.18;2.00;;;29.90;1.00;;;;;;10323635;28;20229;-80
2022/06/24 14:04:15;;;;;;;12.15;2.10;;;30.10;1.00;;;;;;10315639;28;20198;-78
2022/06/24 14:09:37;;;;;;;6.82;2.00;;;29.90;1.00;;;;;;10320395;28;20505;-79
2022/06/24 14:14:59;;;;;;;4.93;2.35;;;29.90;1.00;;;;;;10310368;28;20194;-79
2022/06/24 14:20:21;;;;;;;7.22;2.65;;;29.70;1.00;;;;;;10328480;28;20284;-80
2022/06/24 14:25:42;;;;;;;3.78;1.77;;;29.60;1.00;;;;;;10283766;28;20397;-80
2022/06/24 14:31:04;;;;;;;4.00;1.83;;;29.50;1.00;;;;;;10319624;28;20232;-79
2022/06/24 14:36:25;;;;;;;2.70;1.80;;;29.30;1.00;;;;;;10323339;28;20206;-79
2022/06/24 14:41:46;;;;;;;8.88;2.40;;;29.20;1.00;;;;;;10341812;28;20575;-80
2022/06/24 14:47:08;;;;;;;4.72;1.90;;;28.90;1.00;;;;;;10278784;28;20193;-78
2022/06/24 14:52:29;;;;;;;2.88;1.83;;;28.70;1.00;;;;;;10299881;28;20190;-79
2022/06/24 14:57:51;;;;;;;5.70;2.10;;;28.50;1.00;;;;;;10291923;28;20230;-83
2022/06/24 15:03:12;;;;;;;2.97;2.10;;;28.40;1.00;;;;;;10297428;28;20493;-85
2022/06/24 15:08:35;;;;;;;2.63;1.95;;;28.20;1.00;;;;;;10298835;28;20468;-78
2022/06/24 15:13:57;;;;;;;1.88;1.65;;;28.40;1.00;;;;;;10300190;28;20195;-78
2022/06/24 15:19:18;;;;;;;5.13;2.33;;;28.10;1.00;;;;;;10312531;28;20491;-79
2022/06/24 15:24:41;;;;;;;3.42;2.05;;;27.90;1.00;;;;;;10273569;28;20214;-81
2022/06/24 15:30:02;;;;;;;7.18;2.10;;;27.90;1.00;;;;;;10312566;28;20238;-79
2022/06/24 15:35:26;;;;;;;4.60;2.17;;;27.80;1.00;;;;;;10298951;28;20271;-81
2022/06/24 15:40:47;;;;;;;3.08;2.05;;;27.60;1.00;;;;;;10313905;28;20289;-79
2022/06/24 15:46:12;;;;;;;6.57;2.00;;;27.40;1.00;;;;;;10305119;28;20197;-79
2022/06/24 15:51:34;;;;;;;3.25;2.03;;;27.40;1.00;;;;;;10314543;28;20218;-78
2022/06/24 15:56:55;;;;;;;5.22;2.33;;;27.30;1.00;;;;;;10314258;28;20241;-79
2022/06/24 16:02:16;;;;;;;5.43;2.22;;;27.30;1.00;;;;;;10321087;28;20197;-77
2022/06/24 16:07:39;;;;;;;6.18;1.90;;;27.30;1.00;;;;;;10308399;28;20225;-79
2022/06/24 16:13:00;;;;;;;5.30;2.45;;;27.30;1.00;;;;;;10321563;28;20187;-79
2022/06/24 16:18:22;;;;;;;2.58;1.95;;;27.20;1.00;;;;;;10303174;28;20229;-78
2022/06/24 16:23:45;;;;;;;6.60;2.00;;;27.20;1.00;;;;;;10320409;28;20191;-77
2022/06/24 16:29:06;;;;;;;3.67;2.40;;;27.10;1.00;;;;;;10306011;28;20505;-84
2022/06/24 16:34:27;;;;;;;3.65;2.25;;;27.00;1.00;;;;;;10321150;28;20384;-82
2022/06/24 16:39:49;;;;;;;3.58;2.40;;;26.80;1.00;;;;;;10291228;28;20269;-81
2022/06/24 16:45:11;;;;;;;5.85;2.38;;;26.70;1.00;;;;;;10314462;28;20214;-82
2022/06/24 16:50:32;;;;;;;3.38;2.40;;;26.60;1.00;;;;;;10319983;28;20206;-82
2022/06/24 16:55:54;;;;;;;4.72;2.50;;;26.60;1.00;;;;;;10305082;28;20190;-83
2022/06/24 17:01:15;;;;;;;7.60;2.38;;;26.60;1.00;;;;;;10319668;28;20244;-85
2022/06/24 17:06:36;;;;;;;3.38;2.28;;;26.60;1.00;;;;;;10301919;28;20208;-83
2022/06/24 17:11:58;;;;;;;8.70;2.67;;;26.40;1.00;;;;;;10319178;28;20489;-85
2022/06/24 17:17:19;;;;;;;6.03;2.50;;;26.30;1.00;;;;;;10317455;28;20288;-81
2022/06/24 17:22:40;;;;;;;4.80;2.58;;;26.20;1.00;;;;;;10318887;28;20194;-84
2022/06/24 17:28:03;;;;;;;4.90;2.53;;;26.20;1.00;;;;;;10304005;28;20239;-84
2022/06/24 17:33:24;;;;;;;6.28;2.33;;;26.10;1.00;;;;;;10318126;28;20273;-80
2022/06/24 17:38:45;;;;;;;3.17;2.30;;;26.00;1.00;;;;;;10317819;28;20269;-83
2022/06/24 17:44:07;;;;;;;7.10;2.50;;;25.80;1.00;;;;;;10323060;28;20214;-83
2022/06/24 17:49:29;;;;;;;6.05;2.60;;;25.70;1.00;;;;;;10339255;28;20212;-82
2022/06/24 17:54:50;;;;;;;4.05;2.58;;;25.60;1.00;;;;;;10300977;28;20202;-83
2022/06/24 18:00:14;;;;;;;2.25;2.05;;;25.50;1.00;;;;;;10316949;28;20225;-82
2022/06/24 18:05:35;;;;;;;3.00;2.30;;;25.40;1.00;;;;;;10302899;28;20201;-85
2022/06/24 18:10:57;;;;;;;6.88;2.63;;;25.30;1.00;;;;;;10313531;28;20194;-83
2022/06/24 18:16:18;;;;;;;4.80;2.30;;;25.30;1.00;;;;;;10307630;28;20229;-78
2022/06/24 18:21:41;;;;;;;4.80;2.13;;;25.20;1.00;;;;;;10305132;28;20380;-82
2022/06/24 18:27:02;;;;;;;5.03;2.50;;;25.10;9.90;;;;;;10302002;28;20202;-80
2022/06/24 18:32:23;;;;;;;3.95;2.80;;;24.90;33.00;;;;;;10287037;28;20563;-84
2022/06/24 18:37:44;;;;;;;5.78;2.33;;;24.80;50.60;;;;;;10315579;28;20470;-78
2022/06/24 18:43:06;;;;;;;4.43;2.40;;;24.70;95.40;;;;;;10315551;28;20197;-82
2022/06/24 18:48:28;;;;;;;3.00;2.35;;;24.60;99.90;;;;;;10339555;28;20197;-82
2022/06/24 18:53:50;;;;;;;5.65;2.45;;;24.40;99.90;;;;;;10315486;28;20197;-78
2022/06/24 18:59:11;;;;;;;2.53;2.28;;;24.30;99.90;;;;;;10284211;28;20269;-83
2022/06/24 19:04:33;;;;;;;3.38;2.70;;;24.20;99.90;;;;;;10270878;28;20194;-80
2022/06/24 19:09:55;;;;;;;8.05;2.65;;;24.00;99.90;;;;;;10313881;28;20194;-82
2022/06/24 19:15:16;;;;;;;3.78;2.72;;;24.00;99.90;;;;;;10313612;28;20194;-80
2022/06/24 19:20:38;;;;;;;5.68;2.65;;;23.80;1.00;;;;;;10299851;28;20292;-84
2022/06/24 19:25:59;;;;;;;8.40;3.67;;;23.70;1.00;;;;;;10297445;28;20198;-78
2022/06/24 19:31:21;;;;;;;4.10;3.10;;;23.60;1.00;;;;;;10313783;28;20230;-79
2022/06/24 19:36:42;;;;;;;3.28;2.90;;;23.50;1.00;;;;;;10322232;28;20274;-78
2022/06/24 19:42:04;;;;;;;4.43;2.85;;;23.50;1.00;;;;;;10309027;28;20548;-77
2022/06/24 19:47:28;;;;;;;3.88;2.40;;;23.40;1.00;;;;;;10353791;28;20273;-80
2022/06/24 19:52:50;;;;;;;4.38;2.90;;;23.30;1.00;;;;;;10328999;28;20374;-81
2022/06/24 19:58:12;;;;;;;5.78;3.05;;;23.30;41.80;;;;;;10320956;28;20226;-79
2022/06/24 20:09:22;;;;;;;6.40;4.20;;;23.10;99.90;;;;;;10185914;29;20247;-79
2022/06/24 20:14:43;;;;;;;8.57;4.75;;;23.00;1.00;;;;;;10220913;29;20204;-79
2022/06/24 20:20:06;;;;;;;3.90;3.45;;;22.90;1.00;;;;;;10237494;29;20239;-79
2022/06/24 20:25:44;;;;;;;5.35;3.90;;;22.90;1.00;;;;;;10221092;29;20283;-81
2022/06/24 20:31:07;;;;;;;4.93;3.70;;;22.70;1.00;;;;;;10219833;29;20251;-81
2022/06/24 20:36:28;;;;;;;7.93;4.40;;;22.60;99.90;;;;;;10197498;29;20239;-82
2022/06/24 20:41:50;;;;;;;5.47;3.60;;;22.60;99.90;;;;;;10204770;29;20227;-80
2022/06/24 20:47:11;;;;;;;7.50;4.25;;;22.50;1.00;;;;;;10338225;28;20621;-82
2022/06/24 20:52:33;;;;;;;8.57;4.00;;;22.40;1.00;;;;;;10315465;28;20485;-84
2022/06/24 20:57:54;;;;;;;6.28;4.00;;;22.30;1.00;;;;;;10319524;28;20222;-80
2022/06/24 21:03:16;;;;;;;6.38;4.57;;;22.20;22.50;;;;;;10304410;28;20401;-79
2022/06/24 21:08:37;;;;;;;8.63;3.75;;;22.10;99.90;;;;;;10318904;28;20249;-81
2022/06/24 21:13:58;;;;;;;8.90;4.07;;;22.10;1.00;;;;;;10318446;28;20182;-79
2022/06/24 21:19:20;;;;;;;4.80;4.03;;;22.00;1.00;;;;;;10303633;28;20234;-79
2022/06/24 21:24:41;;;;;;;7.05;3.72;;;21.90;99.90;;;;;;10303631;28;20191;-79
2022/06/24 21:30:04;;;;;;;4.25;3.45;;;21.80;1.00;;;;;;10317763;28;20230;-78
2022/06/24 21:35:25;;;;;;;8.35;3.60;;;;;;;;;;10303033;28;20197;-78
2022/06/24 21:40:47;;;;;;;5.13;4.05;;;21.70;1.00;;;;;;10300179;28;20288;-78
2022/06/24 21:46:09;;;;;;;5.65;3.65;;;21.70;99.90;;;;;;10321238;28;20388;-78
2022/06/24 21:51:30;;;;;;;5.57;3.97;;;21.70;1.00;;;;;;10357595;28;20261;-78
2022/06/24 21:56:52;;;;;;;6.57;4.05;;;21.60;1.00;;;;;;10310795;28;20532;-78
2022/06/24 22:02:13;;;;;;;4.50;3.70;;;21.50;1.00;;;;;;10302344;28;20253;-79
2022/06/24 22:07:34;;;;;;;5.32;3.83;;;21.50;95.00;;;;;;10316259;28;20516;-83
2022/06/24 22:12:56;;;;;;;5.05;3.55;;;21.50;99.90;;;;;;10316653;28;20322;-79
2022/06/24 22:18:18;;;;;;;6.88;3.78;;;21.40;1.00;;;;;;10301735;28;20297;-83
2022/06/24 22:23:39;;;;;;;4.50;3.20;;;21.30;1.00;;;;;;10301771;28;20378;-78
2022/06/24 22:29:00;;;;;;;6.35;3.70;;;21.30;99.90;;;;;;10313337;28;20190;-78
2022/06/24 22:34:22;;;;;;;6.10;3.70;;;21.20;99.90;;;;;;10324378;28;20517;-79
2022/06/24 22:39:43;;;;;;;9.30;4.13;;;21.20;1.00;;;;;;10301305;28;20237;-79
2022/06/24 22:45:06;;;;;;;8.55;4.13;;;21.20;1.00;;;;;;10313351;28;20270;-83
2022/06/24 22:50:27;;;;;;;7.80;3.50;;;21.10;1.00;;;;;;10355689;28;20194;-80
2022/06/24 22:55:49;;;;;;;4.43;3.47;;;21.00;99.90;;;;;;10308715;28;20244;-79
2022/06/24 23:01:10;;;;;;;5.78;3.53;;;20.90;1.00;;;;;;10284920;28;20242;-82
2022/06/24 23:06:32;;;;;;;7.93;4.10;;;20.90;1.00;;;;;;10303444;28;20198;-83
2022/06/24 23:11:54;;;;;;;5.35;3.40;;;20.80;1.00;;;;;;10328434;28;20221;-82
2022/06/24 23:17:16;;;;;;;8.25;3.47;;;20.70;1.00;;;;;;10291550;28;20252;-81
2022/06/24 23:22:38;;;;;;;4.85;3.08;;;20.80;1.00;;;;;;10310520;28;20282;-81
2022/06/24 23:27:59;;;;;;;8.65;3.45;;;20.70;1.00;;;;;;10328305;28;20201;-80
2022/06/24 23:33:20;;;;;;;3.80;3.25;;;20.70;1.00;;;;;;10313423;28;20543;-78
2022/06/24 23:38:42;;;;;;;6.88;3.60;;;20.60;1.00;;;;;;10327836;28;20264;-78
2022/06/24 23:44:03;;;;;;;6.30;3.15;;;20.50;1.00;;;;;;10301023;28;20218;-84
2022/06/24 23:55:06;;;;;;;5.00;4.07;;;20.40;1.00;;;;;;10345945;28;20558;-83
